»·PEaware :: N520MP KBUR-KPSP

N520MP :: KBUR-KPSP

FLIGHT INFORMATION

Flight Status: Arrived
Operator: Privately registered:
United States
More flights under this callsign
Pilot: Manuel P. (9695)
Aircraft: BOMBARDIER BD-100 CHALLENGER 300
(CL30)
More flights by this aircraft type
Origin: KBUR Bob Hope-Burbank
United States
Destination: KPSP Palm Springs Intl
United States
More flights between these airports :: More routes between these airports
Route: +VNY3 PMD V137 PSP
File this flight plan on PilotEdge
Remarks:
Altitude:
(Current/Filed)
23,000ft
Speed:
(Current/Filed)
400kts
Departed: 07-Jan-18 02:25 PM
Arrived: 07-Jan-18 02:58 PM
Distance/Time
Traveled:
95nm/0:33
Distance/Time
To Go:
Arrived

Flight Plot

Page will automatically refresh every two minutes.


Map Options




Map Legend


Flown Route
Filed Route
Departure Airport
Arrival Airport
Navaid (VOR, NDB)
Fix

Horizontal Profiles

Position Reports

Time Latitude Longitude Heading Altitude Ground
Speed
07-Jan-18 14:11 34.200204 -118.358745 263 784ft 0kts
07-Jan-18 14:12 34.200204 -118.358745 263 784ft 0kts
07-Jan-18 14:13 34.200204 -118.358745 263 784ft 0kts
07-Jan-18 14:14 34.200204 -118.358745 263 784ft 0kts
07-Jan-18 14:15 34.200204 -118.358745 263 784ft 0kts
07-Jan-18 14:16 34.200204 -118.358745 263 784ft 0kts
07-Jan-18 14:17 34.200204 -118.358745 263 784ft 0kts
07-Jan-18 14:18 34.200204 -118.358745 263 784ft 0kts
07-Jan-18 14:19 34.200204 -118.358745 263 784ft 0kts
07-Jan-18 14:20 34.200204 -118.358745 263 784ft 0kts
07-Jan-18 14:21 34.200204 -118.358745 263 784ft 0kts
07-Jan-18 14:22 34.200204 -118.358745 263 784ft 0kts
07-Jan-18 14:23 34.200204 -118.358745 263 784ft 0kts
07-Jan-18 14:24 34.200336 -118.359124 325 784ft 2kts
07-Jan-18 14:25 34.202540 -118.359721 24 783ft 8kts
07-Jan-18 14:26 34.204717 -118.359526 347 783ft 15kts
07-Jan-18 14:27 34.208592 -118.360611 348 784ft 12kts
07-Jan-18 14:28 34.211875 -118.361438 5 784ft 6kts
07-Jan-18 14:29 34.211944 -118.361422 15 784ft 0kts
07-Jan-18 14:30 34.212001 -118.361402 18 784ft 3kts
07-Jan-18 14:31 34.199132 -118.356661 167 952ft 172kts
07-Jan-18 14:32 34.152218 -118.391908 225 3849ft 224kts
07-Jan-18 14:33 34.125496 -118.450213 306 4399ft 214kts
07-Jan-18 14:34 34.191450 -118.467356 352 6721ft 284kts
07-Jan-18 14:35 34.263419 -118.477100 1 8845ft 243kts
07-Jan-18 14:36 34.324882 -118.470369 3 10959ft 201kts
07-Jan-18 14:37 34.382174 -118.454238 44 13210ft 253kts
07-Jan-18 14:38 34.432121 -118.379795 51 14057ft 332kts
07-Jan-18 14:39 34.494987 -118.281517 52 14079ft 397kts
07-Jan-18 14:40 34.563370 -118.172727 53 15980ft 416kts
07-Jan-18 14:41 34.602432 -118.048630 106 18119ft 409kts
07-Jan-18 14:42 34.561266 -117.921935 117 20312ft 405kts
07-Jan-18 14:43 34.509952 -117.800809 120 22430ft 411kts
07-Jan-18 14:44 34.453736 -117.676351 121 23161ft 436kts
07-Jan-18 14:45 34.393690 -117.545672 121 23157ft 449kts
07-Jan-18 14:46 34.333129 -117.414725 121 23157ft 445kts
07-Jan-18 14:47 34.273021 -117.285319 122 23154ft 441kts
07-Jan-18 14:48 34.216796 -117.164661 122 21615ft 398kts
07-Jan-18 14:49 34.163755 -117.051272 121 18951ft 379kts
07-Jan-18 14:50 34.114695 -116.946671 121 16489ft 357kts
07-Jan-18 14:51 34.067140 -116.845764 119 14139ft 335kts
07-Jan-18 14:52 34.026620 -116.759752 119 14088ft 264kts
07-Jan-18 14:53 33.990517 -116.679407 112 13403ft 284kts
07-Jan-18 14:54 33.947686 -116.594325 121 11242ft 308kts
07-Jan-18 14:55 33.907289 -116.506043 118 9986ft 283kts
07-Jan-18 14:56 33.871072 -116.432198 124 9067ft 257kts
07-Jan-18 14:57 33.834279 -116.375494 127 7568ft 256kts
07-Jan-18 14:58 33.780868 -116.305411 151 5394ft 227kts
07-Jan-18 14:59 33.721852 -116.318234 233 4260ft 231kts
07-Jan-18 15:00 33.728408 -116.375541 296 3227ft 203kts
07-Jan-18 15:01 33.753548 -116.428326 304 2488ft 165kts
07-Jan-18 15:02 33.783334 -116.467778 328 1570ft 146kts
07-Jan-18 15:03 33.814916 -116.494573 325 637ft 134kts
07-Jan-18 15:04 33.833133 -116.510738 318 484ft 14kts
07-Jan-18 15:05 33.831758 -116.511662 144 484ft 10kts
07-Jan-18 15:06 33.828390 -116.508599 141 483ft 17kts
07-Jan-18 15:07 33.825356 -116.507580 260 483ft 7kts

Navigation Log

Ident Type
Flight plan parsing failed, navigation log unavailable